Date,TemperatureHighF,TemperatureAvgF,TemperatureLowF,DewpointHighF,DewpointAvgF,DewpointLowF,HumidityHigh,HumidityAvg,HumidityLow,PressureMaxIn,PressureMinIn,WindSpeedMaxMPH,WindSpeedAvgMPH,GustSpeedMaxMPH,PrecipitationSumIn
2014-1-1,12.4,2.5,-7.6,1.1,-15.8,-27.0,61,42,23,29.90,29.58,6,2,6,0.00
2014-1-2,-8.1,-11.4,-12.5,-27.4,-29.5,-35.4,43,39,25,29.87,29.52,6,3,11,0.00
2014-1-3,1.0,-9.3,-17.9,-23.4,-31.1,-40.2,43,33,18,29.85,29.53,5,1,6,0.00
2014-1-4,33.3,22.5,-9.6,-1.6,-9.2,-27.6,51,26,16,29.77,29.40,9,4,17,0.00
2014-1-5,39.6,32.9,29.1,35.1,12.9,-1.7,84,46,24,29.61,28.98,6,2,17,0.32
2014-1-6,48.9,29.6,12.0,43.0,19.1,-1.2,87,65,45,29.01,28.66,12,6,26,0.43
2014-1-7,11.8,7.6,4.3,2.4,-14.7,-26.3,65,35,19,29.54,29.00,9,6,22,0.00
2014-1-8,15.6,11.5,7.9,4.3,-5.0,-12.3,61,47,37,29.82,29.54,7,4,14,0.00
2014-1-9,34.5,17.1,11.1,11.2,0.1,-4.0,59,48,24,29.98,29.55,8,3,12,2.76
2014-1-10,36.5,26.8,14.7,26.8,15.4,-0.5,73,62,39,29.90,29.67,4,2,8,0.01
2014-1-11,52.9,45.8,34.9,45.6,39.6,26.3,87,79,68,29.75,28.85,13,5,19,0.44
2014-1-12,39.6,35.6,32.9,33.6,26.0,22.6,79,68,59,29.64,28.99,11,7,18,0.01
2014-1-13,50.2,42.9,32.7,29.9,21.0,15.7,69,43,28,29.65,29.36,10,6,16,0.00
2014-1-14,46.8,40.2,29.7,37.3,34.0,22.0,87,79,53,29.53,29.34,9,3,14,0.07
2014-1-15,37.0,31.1,25.9,30.2,21.8,16.2,79,69,58,29.67,29.50,8,1,11,0.01
2014-1-16,32.9,28.1,23.7,18.2,13.2,7.5,70,54,37,29.70,29.59,0,0,0,0.00
2014-1-17,38.5,30.2,25.3,23.6,17.1,12.6,70,58,47,29.59,29.50,8,2,12,0.00
2014-1-18,35.8,28.3,22.3,24.2,20.1,13.6,78,71,52,29.54,29.43,5,2,8,0.01
2014-1-19,29.8,24.7,21.6,22.4,14.1,5.7,78,64,45,29.45,29.08,11,7,18,0.00
2014-1-20,29.5,10.2,-15.7,21.7,-2.3,-31.7,74,57,26,29.75,29.13,9,3,14,0.00
2014-1-21,3.6,-18.8,-25.4,-25.4,-37.5,-45.0,43,36,19,29.86,29.75,4,0,4,0.00
2014-1-22,4.6,-18.1,-29.9,-25.6,-39.1,-51.8,43,32,19,29.83,29.67,4,1,4,0.00
2014-1-23,5.0,-9.6,-16.8,-19.8,-27.1,-34.5,45,41,28,29.97,29.73,3,1,5,0.00
2014-1-24,17.1,1.9,-17.3,-5.5,-19.7,-34.6,44,35,23,30.01,29.37,8,4,22,0.00
2014-1-25,26.4,19.5,2.5,13.8,0.8,-15.1,71,44,22,29.37,28.92,8,5,30,0.00
2014-1-26,20.1,3.4,-13.0,4.1,-16.9,-29.6,49,37,22,29.47,29.19,6,2,11,0.00
2014-1-27,30.2,18.2,4.6,21.1,-4.1,-29.1,74,40,17,29.72,28.94,10,4,31,0.00
2014-1-28,14.0,6.2,-0.4,-0.9,-20.0,-34.1,51,29,17,29.91,29.71,9,5,19,0.00
2014-1-29,16.0,9.4,5.0,0.5,-10.5,-20.9,59,40,27,29.85,29.61,9,5,21,0.00
2014-1-30,30.9,19.7,6.4,1.0,-6.0,-14.0,60,35,16,29.98,29.54,7,3,20,0.00
2014-1-31,35.4,30.0,27.1,20.7,9.1,-9.0,64,44,19,29.88,29.51,11,4,25,0.00
2014-2-1,39.9,29.2,17.1,29.0,18.6,6.3,80,65,46,29.95,29.51,6,1,14,0.15
2014-2-2,35.8,30.5,25.0,29.0,22.8,16.0,80,72,62,29.87,29.51,6,1,15,0.25
2014-2-3,35.6,22.9,16.5,17.3,7.8,-0.4,71,54,21,30.03,29.86,2,0,4,0.17
2014-2-4,30.6,18.7,9.0,10.8,2.5,-2.8,67,50,26,30.19,30.01,0,0,0,0.00
2014-2-5,18.9,17.9,5.9,9.1,6.3,-9.9,65,60,45,30.00,29.70,2,0,4,7.19
2014-2-6,18.5,3.5,-14.4,3.3,-11.7,-29.8,56,48,29,30.11,29.93,6,2,14,0.00
2014-2-7,18.5,15.5,12.0,4.8,0.2,-4.7,62,50,36,30.01,29.91,10,5,17,0.00
2014-2-8,24.6,15.5,9.5,4.4,0.2,-4.3,61,51,29,30.06,29.97,5,3,14,0.00
2014-2-9,24.3,16.8,9.3,6.5,3.1,-2.9,65,55,31,29.98,29.78,3,1,6,0.00
2014-2-10,24.4,13.5,6.3,4.9,-0.7,-9.0,66,53,28,30.03,29.80,4,1,8,0.00
2014-2-11,19.4,5.8,-12.6,-2.0,-13.6,-29.9,59,41,21,30.31,30.03,4,1,8,0.00
2014-2-12,30.9,5.8,-15.3,-3.0,-17.6,-31.4,53,35,16,30.33,30.00,2,1,6,0.04
2014-2-13,28.0,16.5,-0.2,8.6,-0.7,-19.5,65,47,31,30.01,29.30,4,1,8,0.00
2014-2-14,25.0,20.8,15.6,15.4,11.9,6.9,72,68,64,29.50,29.09,5,1,9,0.00
2014-2-15,32.9,22.8,13.5,19.9,12.2,0.2,74,63,47,29.67,29.50,3,0,6,0.00
2014-2-16,20.3,6.5,-1.1,0.2,-11.0,-17.9,56,45,18,29.99,29.67,4,2,9,0.00
2014-2-17,28.2,2.7,-18.6,-9.9,-22.6,-36.9,52,31,15,30.25,29.97,3,1,5,0.01
2014-2-18,35.8,23.7,-0.9,24.6,9.1,-20.3,71,54,33,29.98,29.69,5,3,15,0.00
2014-2-19,48.2,39.4,23.5,29.6,23.8,11.3,78,55,32,29.77,29.40,5,2,11,0.04
2014-2-20,40.8,34.0,24.6,28.8,24.5,15.6,79,68,58,29.97,29.75,5,2,11,0.00
2014-2-21,45.1,37.5,34.2,39.3,30.5,23.8,84,76,60,29.77,29.37,8,2,17,0.61
2014-2-22,43.9,36.9,32.4,23.8,15.4,10.1,60,41,27,29.68,29.50,17,7,27,0.01
2014-2-23,37.4,30.9,23.7,15.3,9.9,3.0,53,41,24,29.74,29.63,11,4,17,0.00
2014-2-24,23.7,20.5,14.9,6.5,-0.4,-6.6,56,40,28,29.81,29.64,8,4,14,0.00
2014-2-25,24.4,15.0,10.2,0.8,-4.2,-9.1,57,42,25,29.81,29.66,5,2,10,0.00
2014-2-26,16.7,10.6,1.6,5.2,-10.3,-24.5,65,40,20,29.66,29.53,8,3,16,0.00
2014-2-27,18.5,12.2,5.4,3.6,-7.1,-19.6,63,42,25,29.57,29.28,7,4,15,0.00
2014-2-28,10.6,10.4,2.5,-3.9,-4.4,-23.6,51,50,26,29.92,29.55,5,5,11,6.48
2014-3-1,34.7,22.9,3.0,16.5,-7.3,-23.8,70,28,15,29.91,29.59,8,3,17,0.00
2014-3-2,25.0,15.8,1.6,15.2,-4.1,-21.8,72,44,16,29.81,29.66,4,2,8,0.00
2014-3-3,16.3,3.1,-8.3,-12.3,-21.8,-29.0,49,31,15,29.93,29.69,4,2,8,0.00
2014-3-4,17.2,5.2,-4.9,2.6,-12.7,-26.6,61,44,22,29.95,29.85,5,1,9,0.00
2014-3-5,23.9,10.9,-8.9,3.6,-6.6,-26.5,62,46,25,30.20,29.85,5,1,11,0.00
2014-3-6,36.5,6.5,-17.3,-4.7,-20.2,-36.0,49,30,15,30.28,29.95,3,1,49,0.02
2014-3-7,45.3,25.2,-0.4,15.3,-2.9,-26.4,54,30,16,29.95,29.47,7,2,15,0.00
2014-3-8,38.8,30.3,12.0,24.1,11.0,-2.7,75,46,21,29.59,29.41,4,2,8,0.01
2014-3-9,34.0,17.4,-1.1,15.9,-3.6,-15.1,73,41,19,29.68,29.42,8,2,14,0.00
2014-3-10,44.6,32.7,23.0,31.8,22.4,15.5,80,66,41,29.42,29.04,5,2,10,0.17
2014-3-11,50.9,40.1,31.3,32.0,26.2,20.0,79,59,30,29.32,29.03,5,2,11,0.00
2014-3-12,33.3,24.9,10.9,23.9,14.6,1.6,72,65,53,29.35,29.09,9,3,16,0.00
2014-3-13,18.3,8.9,2.5,1.4,-6.9,-25.9,65,51,18,29.57,29.18,6,4,11,0.00
2014-3-14,47.1,32.5,6.6,20.8,9.4,-13.6,51,38,33,29.60,29.13,9,4,14,0.01
2014-3-15,45.5,34.2,19.8,33.0,25.8,7.8,79,72,34,29.65,29.10,8,3,17,0.24
2014-3-16,19.8,11.0,-4.5,7.8,-11.1,-21.2,59,38,16,29.91,29.65,0,0,0,0.00
2014-3-17,27.0,6.6,-14.8,-7.7,-19.4,-31.0,51,31,15,29.85,29.71,0,0,0,0.01
2014-3-18,45.7,20.9,-2.4,4.5,-5.6,-18.2,52,33,15,29.86,29.76,4,1,8,0.02
2014-3-19,48.2,33.2,15.3,32.2,9.4,-6.2,79,41,16,29.82,29.32,6,2,14,0.07
2014-3-20,41.4,35.0,30.0,34.7,27.6,22.1,81,74,55,29.35,29.18,10,5,21,0.07
2014-3-21,30.0,28.4,28.2,25.2,18.0,16.5,82,65,61,29.44,29.34,5,2,9,0.00
2014-3-22,28.2,28.2,28.2,16.5,16.5,16.5,61,61,61,29.43,29.43,2,2,4,0.00
2014-3-23,28.2,28.2,28.2,16.5,16.5,16.5,61,61,61,29.43,29.43,2,2,4,0.00
2014-3-24,28.2,28.2,28.2,16.5,16.5,16.5,61,61,61,29.43,29.43,2,2,4,0.00
2014-3-25,28.2,28.2,28.2,16.5,16.5,16.5,61,61,61,29.43,29.43,2,2,4,0.00
2014-3-26,72.0,23.3,13.1,61.6,-0.3,-15.7,70,39,20,30.02,29.43,6,3,11,5.86
2014-3-27,37.0,24.3,5.5,23.2,-4.3,-15.7,62,29,19,30.07,29.76,6,2,16,0.00
2014-3-28,48.4,41.6,34.2,38.9,32.9,19.7,86,72,49,29.88,29.47,6,3,20,0.41
2014-3-29,40.3,35.4,32.5,31.6,25.3,20.0,80,67,55,30.06,29.78,4,2,13,0.00
2014-3-30,34.9,31.4,28.4,27.2,24.0,20.6,82,74,62,29.79,29.65,6,4,16,0.05
2014-3-31,51.1,36.2,25.5,21.5,18.8,15.4,69,51,27,29.98,29.79,4,2,10,0.05
2014-4-1,51.8,35.7,18.0,24.0,15.2,7.1,73,47,20,29.95,29.59,4,1,8,0.00
2014-4-2,47.5,39.1,32.9,28.4,22.9,19.1,62,52,40,29.90,29.62,9,5,19,0.00
2014-4-3,45.7,33.8,24.1,21.2,15.6,10.7,69,49,24,29.98,29.89,4,1,7,0.00
2014-4-4,49.3,37.4,24.8,37.0,21.7,11.1,83,55,28,29.89,29.30,4,1,13,0.41
2014-4-5,44.6,37.2,32.4,36.5,25.5,18.7,78,62,54,29.81,29.33,9,6,23,0.01
2014-4-6,48.0,37.6,29.1,22.5,18.4,13.8,61,47,29,29.93,29.81,7,3,13,0.00
2014-4-7,63.1,45.8,29.1,36.1,18.0,7.5,88,40,13,29.91,29.43,5,1,15,0.26
2014-4-8,51.8,39.2,35.8,47.2,36.2,32.5,95,89,78,29.44,28.98,8,2,17,0.52
2014-4-9,45.5,38.7,32.0,36.2,17.8,3.5,92,48,19,29.70,29.38,7,3,13,0.00
2014-4-10,65.7,50.5,32.7,46.8,24.7,16.2,87,39,20,29.72,29.40,12,5,30,0.06
2014-4-11,60.1,48.4,31.5,47.6,32.7,16.8,98,62,19,29.79,29.55,6,2,13,0.20
2014-4-12,63.0,48.5,30.9,38.5,29.3,22.7,82,50,24,29.96,29.78,5,2,11,0.00
2014-4-13,77.0,52.1,43.2,49.8,41.9,34.8,96,71,37,29.93,29.55,6,2,15,0.15
2014-4-14,83.7,64.1,46.9,58.6,51.0,45.9,96,69,30,29.62,29.28,8,4,19,0.44
2014-4-15,65.1,42.9,23.0,57.9,40.2,15.4,98,91,71,29.80,29.18,6,2,17,0.54
2014-4-16,37.0,26.7,17.4,15.7,9.0,2.2,72,49,24,30.37,29.79,4,1,8,0.02
2014-4-17,46.2,38.3,20.5,17.6,9.9,4.5,83,36,18,30.46,30.37,3,1,10,0.02
2014-4-18,46.2,46.2,46.2,6.3,6.3,6.3,19,19,19,30.42,30.42,2,2,8,0.00
2014-4-19,46.2,46.2,46.2,6.3,6.3,6.3,19,19,19,30.42,30.42,2,2,8,0.00
2014-4-20,72.0,52.3,46.2,61.6,15.2,6.3,80,26,11,30.42,29.67,3,1,8,2.56
2014-4-21,69.1,58.6,46.4,45.3,31.9,23.8,74,38,25,29.78,29.37,6,2,13,0.00
2014-4-22,62.2,53.3,47.3,52.8,45.8,32.0,98,78,32,29.36,29.08,4,1,11,0.47
2014-4-23,47.3,42.7,37.4,46.8,38.6,16.5,98,87,41,29.50,29.15,7,2,8,0.24
2014-4-24,54.7,39.2,29.7,22.1,15.5,7.7,70,42,16,29.67,29.51,7,2,9,0.00
2014-4-25,64.0,45.9,25.9,30.6,19.9,9.0,89,43,13,29.68,29.33,4,1,6,0.00
2014-4-26,48.4,42.2,39.6,42.0,40.3,35.1,97,93,60,29.53,29.27,6,1,11,0.31
2014-4-27,51.8,43.4,37.6,39.6,36.7,32.7,98,79,52,29.81,29.52,3,1,7,0.05
2014-4-28,41.9,41.9,41.9,37.1,37.1,37.1,83,83,83,29.81,29.81,0,0,0,0.05
2014-4-29,72.0,52.6,41.9,61.6,38.4,29.7,95,63,31,30.00,29.79,5,2,23,1.75
2014-4-30,48.2,44.9,42.1,45.8,41.7,36.8,95,89,74,30.00,29.59,3,1,11,0.94
2014-5-1,59.4,51.6,44.8,54.6,46.4,38.0,98,83,57,29.59,29.38,8,3,17,0.28
2014-5-2,58.6,50.1,45.1,45.5,40.0,35.9,94,69,48,29.48,29.35,8,4,17,0.08
2014-5-3,61.2,51.0,48.4,48.6,43.9,41.7,84,77,51,29.48,29.30,5,3,14,0.07
2014-5-4,49.8,45.4,42.4,45.6,43.2,37.9,95,92,80,29.50,29.26,6,2,10,0.38
2014-5-5,57.7,46.1,40.6,43.9,37.4,33.4,94,72,46,29.67,29.50,4,2,9,0.00
2014-5-6,58.8,46.1,33.8,43.6,29.0,21.8,95,57,27,29.83,29.60,6,2,11,0.00
2014-5-7,68.7,48.5,28.2,40.3,25.2,10.0,94,50,10,29.98,29.82,3,1,8,0.00
2014-5-8,75.9,56.2,36.9,46.6,30.0,12.3,87,47,10,29.87,29.77,5,1,11,0.04
2014-5-9,81.3,66.0,50.4,60.2,48.9,38.3,78,56,33,29.80,29.47,6,1,22,0.01
2014-5-10,75.4,65.7,54.9,61.3,51.6,38.9,95,63,33,29.55,29.42,10,5,22,0.32
2014-5-11,72.1,59.4,47.1,42.7,37.3,28.5,79,47,27,29.72,29.55,8,4,18,0.00
2014-5-12,79.3,63.9,48.9,50.0,40.5,33.2,73,45,22,29.81,29.72,4,1,8,0.00
2014-5-13,73.4,60.5,50.5,55.2,45.5,37.5,75,58,40,29.85,29.71,4,1,9,0.00
2014-5-14,81.3,70.8,60.1,64.3,60.7,50.3,93,71,50,29.82,29.71,5,2,15,0.13
2014-5-15,92.5,79.1,63.0,63.8,56.2,42.4,89,50,19,29.76,29.58,8,3,20,0.00
2014-5-16,73.0,61.1,46.4,62.6,55.0,45.6,98,82,60,29.62,29.47,4,2,12,1.03
2014-5-17,59.7,49.5,44.2,45.9,41.0,35.0,98,75,47,29.83,29.56,5,3,11,0.00
2014-5-18,59.5,49.3,38.5,38.8,35.1,26.8,92,62,29,29.93,29.83,3,1,6,0.00
2014-5-19,70.0,56.3,45.7,44.3,38.0,32.3,79,55,27,29.90,29.79,5,2,7,0.00
2014-5-20,79.0,56.7,45.5,45.3,40.2,25.7,89,61,14,29.85,29.70,4,1,5,0.00
2014-5-21,82.6,62.2,44.6,49.0,42.2,32.1,87,54,18,29.69,29.53,4,1,6,0.00
2014-5-22,77.5,60.7,54.3,58.2,52.4,48.7,98,77,39,29.54,29.47,3,1,5,0.21
2014-5-23,72.9,58.1,51.4,54.8,51.9,48.7,96,82,45,29.68,29.54,3,0,4,0.01
2014-5-24,68.7,55.7,53.1,57.1,53.5,51.7,98,93,56,29.78,29.68,4,0,4,0.02
2014-5-25,79.7,64.3,47.8,54.2,49.5,42.2,97,63,38,29.76,29.65,7,2,14,0.00
2014-5-26,79.2,66.9,57.2,55.8,52.8,46.7,92,63,43,29.66,29.50,5,3,8,0.09
2014-5-27,85.8,65.2,52.0,63.2,55.9,50.0,93,74,43,29.56,29.43,3,1,4,0.01
2014-5-28,60.4,53.7,49.6,52.7,50.0,48.8,97,88,69,29.87,29.56,1,0,7,0.00
2014-5-29,71.8,59.5,49.3,50.2,47.2,41.6,92,66,40,29.89,29.80,2,0,9,0.00
2014-5-30,73.9,56.3,45.0,59.5,44.7,34.3,98,71,24,29.87,29.76,4,0,7,0.05
2014-5-31,79.7,59.1,40.5,55.2,42.7,34.7,97,62,21,30.00,29.86,2,0,11,0.00
2014-6-1,83.7,65.4,47.5,53.5,48.8,42.5,93,60,26,30.01,29.80,4,1,7,0.00
2014-6-2,88.7,74.4,59.7,64.2,56.3,47.7,76,54,36,29.82,29.61,3,1,10,0.00
2014-6-3,79.9,71.9,67.8,72.0,66.5,60.2,96,83,67,29.63,29.43,3,1,10,1.39
2014-6-4,74.3,63.4,52.9,60.9,49.8,46.2,86,63,42,29.56,29.42,6,2,15,0.00
2014-6-5,63.9,55.2,49.1,55.9,48.2,-99.9,98,83,66,29.53,29.40,139,3,139,0.06
2014-6-6,72.9,59.8,52.3,56.3,53.7,51.0,95,81,52,29.67,29.51,2,1,4,0.01
2014-6-7,89.6,68.2,53.6,57.5,51.6,40.8,89,60,19,29.72,29.61,2,1,7,0.00
2014-6-8,86.5,69.1,51.1,64.0,53.4,44.6,90,61,24,29.67,29.55,3,0,6,0.00
2014-6-9,87.8,72.6,63.1,60.6,59.6,56.9,85,66,38,29.67,29.59,1,0,4,0.00
2014-6-10,87.3,71.6,58.8,62.7,56.0,48.6,97,62,29,29.75,29.68,2,0,5,0.33
2014-6-11,70.5,60.4,55.0,60.9,56.2,53.0,97,87,58,29.75,29.66,2,0,11,0.64
2014-6-12,70.0,65.4,59.2,66.2,62.5,58.1,96,90,77,29.66,29.55,2,1,10,0.35
2014-6-13,77.2,68.6,65.5,71.4,66.1,62.8,98,92,74,29.55,29.38,2,0,7,1.78
2014-6-14,72.0,57.9,54.0,64.9,53.7,47.8,98,86,62,29.96,29.46,3,2,11,0.06
2014-8-2,88.2,68.9,60.6,69.7,62.5,57.4,96,82,47,30.01,29.93,4,0,6,0.73
2014-8-3,89.4,69.8,57.9,68.7,62.6,57.1,97,81,37,29.99,29.89,2,0,2,0.00
2014-8-4,86.2,71.2,64.0,66.6,62.8,60.5,96,77,44,29.94,29.86,3,1,4,0.02
2014-8-5,83.1,69.3,61.7,65.7,62.0,58.2,92,79,45,29.89,29.81,4,1,8,0.00
2014-8-6,83.7,65.6,53.8,60.6,55.1,47.9,96,74,31,29.83,29.77,2,0,4,0.08
2014-8-7,80.6,64.1,53.4,60.5,55.8,50.2,97,77,38,29.90,29.80,3,0,4,0.02
2014-8-8,86.4,70.5,51.8,62.0,57.3,50.4,95,66,36,29.99,29.90,2,0,5,0.00
2014-8-9,89.8,70.6,57.9,63.9,57.9,51.7,90,68,30,30.03,29.96,2,0,4,0.00
2014-8-10,91.8,70.1,55.0,64.1,57.6,52.0,93,69,29,30.04,29.97,1,0,4,0.00
2014-8-11,95.0,79.4,63.0,67.3,62.4,55.2,88,59,30,29.98,29.87,2,0,5,0.00
2014-8-12,72.0,67.8,61.7,62.8,56.0,52.6,90,67,58,30.20,29.80,2,1,9,0.13
2014-8-13,79.2,67.4,59.0,66.6,61.3,54.5,94,82,56,29.92,29.79,5,2,12,0.72
2014-8-14,59.0,56.1,55.0,54.8,49.9,47.8,86,80,77,29.90,29.83,3,2,7,0.76
2014-8-15,62.1,56.1,52.9,53.8,51.9,50.4,94,86,70,29.98,29.91,3,1,4,0.07
2014-8-16,65.1,60.7,55.2,57.8,55.2,51.1,92,82,73,29.98,29.88,6,2,10,0.24
2014-8-17,68.4,61.0,56.5,58.9,57.3,54.8,96,88,66,30.03,29.88,2,0,3,0.12
2014-8-18,77.2,57.2,50.4,55.2,50.9,47.8,96,82,38,30.07,29.90,3,0,4,0.76
2014-8-19,51.6,48.4,46.4,49.9,46.5,44.8,95,93,91,30.05,30.00,0,0,2,0.00
2014-8-20,91.4,69.7,59.7,68.1,63.6,52.6,94,82,42,30.11,30.00,2,0,5,1.39
2014-8-21,77.2,68.4,64.4,71.6,65.4,62.7,95,90,72,30.10,30.05,3,0,8,0.32
2014-8-22,80.2,67.6,61.9,71.2,64.0,60.5,95,88,66,30.17,30.08,1,0,4,0.01
2014-8-23,79.9,67.2,59.4,65.9,61.2,56.6,91,82,56,30.26,30.17,1,0,5,0.01
2014-8-24,90.9,67.5,54.5,65.4,58.8,52.8,95,77,34,30.32,30.23,1,0,3,0.00
2014-8-25,91.6,69.0,55.4,66.2,59.9,53.4,94,76,37,30.32,30.22,1,0,4,0.00
2014-8-26,87.3,72.4,60.8,65.7,60.7,55.8,90,68,43,30.23,30.05,4,1,10,0.00
2014-8-27,85.8,72.1,63.0,64.0,60.5,56.4,83,68,42,30.10,30.03,5,1,8,0.00
2014-8-28,75.6,63.2,53.6,57.7,53.7,47.3,90,72,42,30.21,30.03,2,0,6,0.00
2014-8-29,54.9,52.0,48.4,51.7,49.1,45.9,93,90,87,30.30,30.21,1,0,2,0.00
2014-8-30,86.0,77.0,62.6,62.9,60.0,52.1,74,57,37,30.28,30.06,3,1,8,0.00
2014-9-1,87.8,75.5,68.2,69.7,66.1,61.7,92,74,47,30.08,29.94,3,1,8,0.28
2014-9-2,86.7,74.6,62.6,68.5,65.4,60.3,93,74,48,29.94,29.84,4,2,10,0.39
2014-9-3,82.8,67.8,61.0,62.5,59.0,54.9,94,76,43,30.19,29.93,3,1,8,0.00
2014-9-4,88.9,71.1,61.0,65.2,59.0,54.2,83,68,36,30.22,30.13,3,1,9,0.00
2014-9-5,89.6,76.3,65.7,69.2,65.1,61.3,91,70,48,30.18,29.93,5,2,14,0.01
2014-9-6,80.8,65.1,59.7,65.3,60.6,55.5,91,85,59,30.11,29.92,4,0,12,0.43
2014-9-7,78.3,59.1,49.6,55.7,51.7,47.8,94,79,40,30.26,30.10,2,0,4,0.00
2014-9-8,56.1,56.1,56.1,51.7,51.7,51.7,85,85,85,30.31,30.31,0,0,0,0.00
2014-9-9,56.1,56.1,56.1,51.7,51.7,51.7,85,85,85,30.31,30.31,0,0,0,0.00
2014-9-10,56.1,56.1,56.1,51.7,51.7,51.7,85,85,85,30.31,30.31,0,0,0,0.00
2014-9-11,73.6,61.7,49.3,65.1,53.9,43.1,85,76,66,30.31,29.67,8,2,15,0.13
2014-9-12,52.9,49.4,42.1,44.8,41.8,38.0,87,75,62,30.40,30.19,1,0,4,0.00
2014-9-13,55.6,49.0,37.6,53.3,46.7,35.5,94,92,86,30.40,30.09,3,2,9,0.35
2014-9-14,59.9,47.4,40.6,42.9,40.3,37.7,90,77,49,30.45,30.34,1,0,4,0.00
2014-9-15,54.1,51.9,40.6,49.8,48.1,37.7,93,87,80,30.35,30.13,1,0,2,0.04
2014-9-16,55.9,54.6,52.3,52.9,51.4,49.5,93,89,87,30.14,30.08,2,1,4,0.04
2014-9-17,55.9,55.9,55.9,52.1,52.1,52.1,87,87,87,30.11,30.11,1,1,3,0.04
2014-9-18,72.0,54.9,37.9,61.6,50.9,31.4,87,86,69,30.11,29.77,1,1,3,0.04
2014-9-19,71.1,45.1,28.9,42.4,31.4,21.5,92,65,17,30.07,29.83,2,0,97,0.00
2014-9-20,74.3,64.8,50.5,58.1,52.5,39.6,73,65,54,29.84,29.52,7,4,19,0.00
2014-9-21,75.7,68.3,63.7,65.1,58.8,55.0,87,72,61,30.16,29.20,7,3,17,0.35
2014-9-22,63.7,49.0,46.4,58.4,42.0,38.7,94,77,64,29.72,29.25,3,2,7,0.45
2014-9-23,48.7,48.7,48.7,41.2,41.2,41.2,75,75,75,29.72,29.72,0,0,2,0.45
2014-9-24,68.0,60.6,42.6,57.0,53.6,39.3,88,78,69,30.17,29.83,1,0,2,0.45
2014-9-25,69.3,58.6,53.2,57.8,51.3,47.6,88,77,65,30.17,29.97,0,0,2,0.45
2014-9-26,69.8,61.8,55.6,59.1,56.1,52.7,90,82,67,29.97,29.88,1,0,4,0.00
2014-9-27,87.8,64.9,53.1,61.0,55.0,48.5,87,73,35,29.96,29.87,2,0,4,0.00
2014-9-28,83.1,65.1,55.9,59.8,54.4,50.3,88,70,40,29.88,29.70,3,1,7,0.00
2014-9-29,85.5,63.8,51.1,57.7,52.2,47.0,86,68,33,29.70,29.58,2,0,5,0.00
2014-9-30,75.7,56.7,46.6,53.6,48.7,44.4,93,77,45,29.66,29.59,1,0,7,0.00
2014-10-1,75.0,61.8,52.3,55.3,52.0,49.8,92,72,46,29.82,29.72,2,0,5,0.00
2014-10-2,57.9,54.3,52.5,52.6,50.2,48.8,89,86,78,29.78,29.75,1,0,2,0.00
2014-10-3,84.2,65.4,53.1,55.4,50.6,45.9,91,63,30,29.76,29.34,4,1,14,0.00
2014-10-4,63.0,56.0,47.8,55.5,51.0,41.8,89,83,62,29.34,29.19,3,2,12,0.35
2014-10-5,56.5,48.1,41.2,42.6,38.7,34.7,84,71,49,29.56,29.31,6,2,14,0.01
2014-10-6,67.5,53.0,42.1,49.9,39.5,33.4,80,62,37,29.60,29.51,6,2,17,0.01
2014-10-7,68.2,59.5,52.5,53.0,47.6,42.9,82,65,47,29.56,27.24,6,2,17,0.11
2014-10-8,63.0,54.7,46.4,52.6,45.6,34.1,89,73,38,29.50,29.24,8,3,19,0.45
2014-10-9,54.9,46.8,41.4,42.9,36.8,31.9,84,69,44,29.67,29.49,7,3,15,0.02
2014-10-10,57.6,46.7,39.6,41.2,37.6,34.9,88,71,49,29.79,29.67,4,2,8,0.00
2014-10-11,57.9,47.0,42.1,42.2,39.4,36.2,87,76,51,29.85,29.76,2,0,5,0.00
2014-10-12,67.3,44.5,32.0,42.2,32.7,25.3,91,68,23,29.99,29.84,2,0,4,0.00
2014-10-13,67.5,55.0,34.5,52.1,43.4,29.6,89,66,50,29.91,29.76,4,1,13,0.00
2014-10-14,85.6,70.3,57.4,58.1,55.1,51.8,85,60,38,29.77,29.59,8,3,17,0.00
2014-10-15,81.1,71.6,62.8,61.4,58.0,54.9,88,63,44,29.61,29.51,6,2,13,0.17
2014-10-16,73.9,65.3,57.9,65.9,61.1,55.0,91,86,70,29.52,29.26,3,0,10,0.51
2014-10-17,63.5,57.3,55.6,55.2,52.1,48.3,91,83,61,29.29,29.20,6,2,9,0.02
2014-10-18,59.0,51.5,42.8,51.7,45.8,37.7,91,81,69,29.47,29.15,5,2,12,0.24
2014-10-19,43.7,39.2,32.2,37.7,30.0,26.1,82,70,52,29.71,29.47,5,2,8,0.01
2014-10-20,48.4,39.9,28.8,42.3,34.6,24.2,91,81,61,29.68,29.56,2,0,4,0.05
2014-10-21,45.5,44.9,44.4,43.6,42.9,41.8,93,93,91,29.56,29.54,0,0,2,0.00
2014-10-22,67.6,44.2,20.8,57.2,9.0,-4.0,71,39,24,29.91,29.69,8,4,12,5.40
2014-10-23,72.0,47.1,43.2,61.6,40.5,34.9,92,78,61,29.95,29.78,4,2,10,0.00
2014-10-24,62.8,49.1,43.5,45.1,42.0,40.2,93,78,47,29.79,27.51,2,0,4,0.00
2014-10-25,60.6,52.0,39.6,49.0,44.9,37.2,92,77,57,29.65,29.32,6,3,14,0.21
2014-10-26,51.1,45.9,43.5,43.6,40.6,38.2,89,82,69,29.65,29.31,3,1,8,0.22
2014-10-27,59.7,44.5,39.9,40.1,36.0,33.9,87,73,41,29.88,29.64,3,1,7,0.00
2014-10-28,40.6,40.6,40.6,34.6,34.6,34.6,79,79,79,29.86,29.86,0,0,2,0.00
2014-10-29,40.6,40.6,40.6,34.6,34.6,34.6,79,79,79,29.86,29.86,0,0,2,0.00
2014-10-30,40.6,40.6,40.6,34.6,34.6,34.6,79,79,79,29.86,29.86,0,0,2,0.00
2014-10-31,72.0,41.9,31.6,38.3,30.9,25.6,90,66,47,29.98,29.86,3,1,8,0.32
2014-11-1,40.1,36.8,34.0,33.1,28.7,24.6,83,72,64,30.00,29.92,4,2,7,0.01
2014-11-2,45.3,36.1,27.9,29.0,17.4,1.5,79,49,17,30.03,29.92,6,2,10,0.01
2014-11-3,51.6,39.8,26.6,37.2,28.9,15.8,75,65,48,29.99,29.89,3,1,8,0.00
2014-11-4,63.0,54.4,46.4,47.5,34.7,24.9,82,50,26,29.92,29.71,6,2,15,0.04
2014-11-5,55.8,49.8,42.1,48.0,37.1,30.0,83,62,40,29.97,29.69,9,4,21,0.07
2014-11-6,49.5,42.0,35.8,35.7,32.4,29.8,85,69,49,29.96,29.61,2,1,6,0.17
2014-11-7,37.4,35.3,31.8,33.3,29.1,19.7,85,78,61,29.80,29.57,3,2,8,0.11
2014-11-8,42.4,35.6,28.2,27.9,22.7,17.8,71,59,50,29.82,29.57,4,2,12,0.00
2014-11-9,42.4,42.4,42.4,27.9,27.9,27.9,56,56,56,29.57,29.57,3,3,8,0.00
2014-11-10,72.0,26.3,30.0,61.6,30.8,-0.3,80,67,26,29.96,29.78,5,1,7,5.40
2014-11-11,72.0,41.1,39.4,61.6,32.9,32.1,75,73,48,30.25,29.84,3,0,9,5.40
2014-11-12,60.6,46.5,33.3,50.2,33.3,16.2,84,60,46,30.23,29.87,8,4,17,0.05
2014-11-13,41.0,34.2,27.3,26.7,21.4,16.5,84,61,39,30.22,30.11,5,2,14,0.00
2014-11-14,34.5,28.6,25.2,25.3,20.5,13.2,86,72,50,30.30,30.10,4,1,7,0.00
2014-11-15,37.9,29.6,20.7,24.0,14.8,8.0,71,54,36,30.44,30.30,4,2,10,0.00
2014-11-16,37.8,33.6,29.3,24.3,20.2,16.4,78,58,46,30.38,30.15,6,2,16,0.00
2014-11-17,34.3,32.8,31.1,30.1,27.6,22.3,86,81,68,30.15,29.61,4,0,11,0.18
2014-11-18,33.3,23.8,20.7,28.7,13.4,3.8,83,65,42,29.89,27.42,8,4,19,0.01
2014-11-19,30.9,23.3,18.1,17.2,9.8,3.0,71,56,35,30.20,29.89,7,3,16,0.00
2014-11-20,34.5,25.5,18.0,20.4,11.9,0.7,77,57,34,30.03,29.83,7,3,12,0.00
2014-11-21,29.1,20.2,15.3,8.9,3.1,-7.8,67,48,22,30.53,30.03,4,2,11,0.00
2014-11-22,38.8,26.5,15.1,32.4,6.8,-3.5,78,46,18,30.48,30.06,9,4,21,0.02
2014-11-24,64.8,52.2,38.8,48.1,41.5,32.9,79,67,52,30.07,29.44,9,6,11,0.44
2014-11-25,44.2,38.1,22.1,33.3,25.3,-64.3,73,61,1,30.32,29.76,23,5,46,0.01
2014-11-26,34.2,30.6,27.5,22.1,18.2,-58.3,70,60,1,30.41,30.18,32,1,129,0.00
2014-11-27,30.2,27.5,23.2,19.7,16.3,13.7,72,62,55,30.22,30.13,3,1,4,0.00
2014-11-28,27.0,22.0,16.7,14.6,10.8,5.0,70,62,50,30.33,30.20,4,1,9,0.00
2014-11-29,17.4,16.0,15.8,5.9,5.9,5.6,64,63,59,30.33,30.33,1,1,2,0.00
2014-11-30,43.9,39.9,36.1,30.5,25.5,18.8,59,56,49,30.07,29.99,7,4,13,0.01
2014-12-6,15.8,15.8,15.8,5.9,5.9,5.9,64,64,64,30.33,30.33,1,1,2,0.00
2014-12-22,48.4,38.6,32.0,32.4,25.7,19.8,68,60,50,30.00,29.89,2,0,4,0.00
2014-12-23,46.2,40.0,35.1,32.1,28.5,24.5,81,64,45,30.06,30.00,4,2,5,0.01
2014-12-24,55.6,39.0,23.7,27.1,17.8,7.1,80,51,15,30.09,30.00,4,1,7,0.00
2014-12-25,57.7,44.2,34.9,37.5,19.1,9.4,81,39,16,30.02,29.64,6,2,10,0.06
2014-12-26,42.3,38.9,31.5,37.2,29.3,8.7,89,71,31,29.70,29.45,10,3,14,0.20
2014-12-27,34.5,27.5,21.4,13.5,5.2,-4.0,67,39,24,29.81,29.71,8,4,12,0.00
2014-12-28,32.7,15.7,31.8,19.3,9.2,17.5,79,54,26,30.01,29.83,5,2,8,5.40
2014-12-29,32.0,22.4,14.4,19.5,4.5,-3.6,61,46,28,30.22,29.92,4,2,9,0.00
2014-12-30,20.1,11.2,4.6,-1.8,-8.9,-19.7,56,41,17,30.36,30.20,3,1,7,0.00
2014-12-31,24.8,16.3,10.8,9.3,2.6,-4.9,65,55,30,30.20,29.95,5,2,12,0.00
2015-1-1,19.0,19.0,19.0,9.3,9.3,9.3,65,65,65,29.95,29.95,3,3,5,0.00
2015-1-2,33.1,18.6,-0.4,9.3,8.8,-16.1,65,65,46,29.95,29.46,3,3,5,0.00